Airfield :
LOGIN :

Register | Disclaimer

   EN    FR    IT 

 










Legend :    VFR   Marginal VFR   IFR   Intensive IFR   Very Intensive IFR
Visi :
Ceiling :
>= 8 km
>= 3000ft
5 to 8 km
1000 to 3000 ft
1500m to 5 km
500 to 1000 ft
800 to 1500m
200 to 500 ft
< 800m
< 200 ft
Symbols :   Thunderstorms  Fog  Heavy snow  Heavy precipitations  Wind > 20 kt
SIGMETs :     Misc.  Thunderstorms  Icing  Turbulence  Mountain Waves  Volcanic Ashes






- Airport Elevation : 2356 ft


LZTT - Poprad Tatry

CURRENT METAR :
  • 140900Z 23005KT 9999 FEW020 09/06 Q1011 NOSIG

EXPIRED METARs :
  • 140830Z 24005KT 9999 FEW018 08/06 Q1010 NOSIG
  • 140800Z 24005KT 9999 FEW015 07/06 Q1010 NOSIG
  • 140730Z 26005KT 9999 FEW015 06/05 Q1010 NOSIG
  • 140700Z 24003KT 9999 FEW015 05/04 Q1009 NOSIG

TAF TAF LZTT
Valid from the 14 at 06:00 until the 15 at 06:00 UTC


140500Z 1406/1506 VRB02KT 9999 FEW020 SCT090
PROB30
TEMPO 1406/1408 2000 BCFG SCT002
BECMG 1418/1420 BKN020
TEMPO 1422/1506 BKN008
PROB30
TEMPO 1501/1506 1400 -DZ BCFG BKN002



MET'MAP, your aeronautical weather chart ! - Copyright ORBIFLY December 2007 - Disclaimer

ORBIFLY MET'MAP TEAM :

Programming & Development : Alexandra Zaïnal
Concept & Development : Baudouin d'Aumeries
Co-Development & Prog : Marc-Olivier Méhu
Technical & hardware support : Manuel Goepfert

Contact : metmap@orbifly.com




SOURCES & CREDITS :

   NOAA